RYR1422 LUKK-EPWA
Flight info
| Callsign | RYR1422 |
|---|---|
| Flight time | 1h 22m |
| Altitude | 34000 |
| Route | NUNTA2K NUNTA DCT BUZZE DCT KARIL DCT KENIN DCT ORTEB DCT KONZI DCT LOGDA LOGDA6U |
| Aircraft | B738/L-SDGRWY/L |
Departure
| Time | 2026-05-09 08:03 |
|---|---|
| Airport | Chişinău International Airport (LUKK) |
Arrival
| Time | 2026-05-09 09:26 |
|---|---|
| Airport | Warsaw Chopin Airport (EPWA) |
| Time | Latitude | Longitude | Altitude | Speed | Heading |
|---|---|---|---|---|---|
| 2026-05-09 07:38 | 46.93521 | 28.92833 | 350 ft | 0 kts | 187° |
| 2026-05-09 07:52 | 46.93507 | 28.92828 | 355 ft | 4 kts | 196° |
| 2026-05-09 07:53 | 46.93489 | 28.92807 | 357 ft | 3 kts | 231° |
| 2026-05-09 07:53 | 46.93484 | 28.92799 | 358 ft | 3 kts | 219° |
| 2026-05-09 07:53 | 46.93468 | 28.92804 | 357 ft | 3 kts | 170° |
| 2026-05-09 07:53 | 46.93485 | 28.92805 | 358 ft | 2 kts | 247° |
| 2026-05-09 07:54 | 46.93486 | 28.92808 | 351 ft | 1 kts | 251° |
| 2026-05-09 07:57 | 46.93480 | 28.92787 | 357 ft | 4 kts | 244° |
| 2026-05-09 07:57 | 46.93457 | 28.92765 | 354 ft | 5 kts | 197° |
| 2026-05-09 07:57 | 46.93415 | 28.92754 | 354 ft | 6 kts | 189° |
| 2026-05-09 07:58 | 46.93373 | 28.92746 | 351 ft | 6 kts | 186° |
| 2026-05-09 07:58 | 46.93332 | 28.92739 | 351 ft | 6 kts | 186° |
| 2026-05-09 07:58 | 46.93301 | 28.92734 | 359 ft | 0 kts | 186° |
| 2026-05-09 07:59 | 46.93262 | 28.92727 | 353 ft | 9 kts | 189° |
| 2026-05-09 07:59 | 46.93220 | 28.92670 | 353 ft | 9 kts | 259° |
| 2026-05-09 07:59 | 46.93222 | 28.92580 | 352 ft | 9 kts | 274° |
| 2026-05-09 07:59 | 46.93229 | 28.92492 | 357 ft | 9 kts | 277° |
| 2026-05-09 08:00 | 46.93239 | 28.92382 | 364 ft | 10 kts | 277° |
| 2026-05-09 08:00 | 46.93246 | 28.92293 | 363 ft | 9 kts | 277° |
| 2026-05-09 08:00 | 46.93253 | 28.92213 | 362 ft | 9 kts | 276° |
| 2026-05-09 08:00 | 46.93259 | 28.92127 | 364 ft | 8 kts | 276° |
| 2026-05-09 08:01 | 46.93242 | 28.92050 | 368 ft | 8 kts | 219° |
| 2026-05-09 08:01 | 46.93184 | 28.92018 | 371 ft | 12 kts | 195° |
| 2026-05-09 08:01 | 46.93094 | 28.91989 | 373 ft | 14 kts | 182° |
| 2026-05-09 08:01 | 46.93000 | 28.91991 | 373 ft | 13 kts | 179° |
| 2026-05-09 08:02 | 46.92912 | 28.91993 | 378 ft | 13 kts | 178° |
| 2026-05-09 08:02 | 46.92824 | 28.91999 | 381 ft | 12 kts | 177° |
| 2026-05-09 08:02 | 46.92761 | 28.92068 | 381 ft | 13 kts | 98° |
| 2026-05-09 08:02 | 46.92762 | 28.92227 | 375 ft | 31 kts | 88° |
| 2026-05-09 08:03 | 46.92777 | 28.92975 | 361 ft | 113 kts | 89° |
| 2026-05-09 08:03 | 46.92807 | 28.94454 | 403 ft | 172 kts | 87° |
| 2026-05-09 08:03 | 46.92889 | 28.96374 | 758 ft | 207 kts | 85° |
| 2026-05-09 08:03 | 46.92984 | 28.98593 | 1467 ft | 218 kts | 89° |
| 2026-05-09 08:04 | 46.93000 | 29.00695 | 2716 ft | 208 kts | 90° |
| 2026-05-09 08:04 | 46.93020 | 29.02917 | 3094 ft | 231 kts | 90° |
| 2026-05-09 08:04 | 46.93134 | 29.05362 | 3281 ft | 252 kts | 76° |
| 2026-05-09 08:04 | 46.94088 | 29.07564 | 3646 ft | 265 kts | 41° |
| 2026-05-09 08:05 | 46.95746 | 29.08761 | 4163 ft | 273 kts | 12° |
| 2026-05-09 08:05 | 46.97648 | 29.08655 | 4688 ft | 278 kts | 342° |
| 2026-05-09 08:05 | 46.98801 | 29.07842 | 5002 ft | 280 kts | 321° |
| 2026-05-09 08:05 | 47.00414 | 29.04427 | 5877 ft | 277 kts | 291° |
| 2026-05-09 08:06 | 47.03279 | 28.94052 | 8103 ft | 286 kts | 289° |
| 2026-05-09 08:06 | 47.05005 | 28.87792 | 9530 ft | 291 kts | 290° |
| 2026-05-09 08:06 | 47.05195 | 28.87114 | 9679 ft | 292 kts | 290° |
| 2026-05-09 08:07 | 47.06269 | 28.83295 | 10389 ft | 300 kts | 290° |
| 2026-05-09 08:07 | 47.07087 | 28.80389 | 10526 ft | 320 kts | 291° |
| 2026-05-09 08:07 | 47.07961 | 28.77288 | 10671 ft | 339 kts | 291° |
| 2026-05-09 08:07 | 47.08887 | 28.74008 | 10830 ft | 357 kts | 291° |
| 2026-05-09 08:08 | 47.10334 | 28.68867 | 11254 ft | 374 kts | 291° |
| 2026-05-09 08:08 | 47.11334 | 28.64983 | 11728 ft | 378 kts | 282° |
| 2026-05-09 08:08 | 47.11494 | 28.60762 | 12392 ft | 376 kts | 265° |
| 2026-05-09 08:08 | 47.11374 | 28.55484 | 13219 ft | 381 kts | 266° |
| 2026-05-09 08:09 | 47.11328 | 28.52658 | 13606 ft | 384 kts | 266° |
| 2026-05-09 08:09 | 47.11131 | 28.36929 | 15796 ft | 395 kts | 267° |
| 2026-05-09 08:09 | 47.10924 | 28.20576 | 17969 ft | 407 kts | 267° |
| 2026-05-09 08:09 | 47.10839 | 28.14337 | 18704 ft | 411 kts | 267° |
| 2026-05-09 08:10 | 47.10601 | 27.98285 | 20527 ft | 419 kts | 268° |
| 2026-05-09 08:10 | 47.10547 | 27.94843 | 20886 ft | 421 kts | 268° |
| 2026-05-09 08:11 | 47.10450 | 27.88785 | 21426 ft | 425 kts | 268° |
| 2026-05-09 08:11 | 47.10429 | 27.85616 | 21720 ft | 428 kts | 272° |
| 2026-05-09 08:12 | 47.10458 | 27.84885 | 21781 ft | 429 kts | 275° |
| 2026-05-09 08:12 | 47.11710 | 27.75825 | 22790 ft | 431 kts | 282° |
| 2026-05-09 08:12 | 47.14397 | 27.59308 | 24137 ft | 440 kts | 282° |
| 2026-05-09 08:13 | 47.16055 | 27.48517 | 24873 ft | 445 kts | 281° |
| 2026-05-09 08:13 | 47.17902 | 27.36092 | 25744 ft | 449 kts | 281° |
| 2026-05-09 08:13 | 47.18011 | 27.35356 | 25799 ft | 449 kts | 281° |
| 2026-05-09 08:13 | 47.19217 | 27.27150 | 26305 ft | 453 kts | 281° |
| 2026-05-09 08:14 | 47.20022 | 27.21655 | 26615 ft | 455 kts | 281° |
| 2026-05-09 08:14 | 47.21337 | 27.12658 | 27141 ft | 459 kts | 280° |
| 2026-05-09 08:15 | 47.21532 | 27.11321 | 27217 ft | 459 kts | 280° |
| 2026-05-09 08:15 | 47.22872 | 27.02116 | 27705 ft | 463 kts | 280° |
| 2026-05-09 08:15 | 47.24212 | 26.92851 | 28333 ft | 463 kts | 280° |
| 2026-05-09 08:15 | 47.24221 | 26.92788 | 28339 ft | 463 kts | 280° |
| 2026-05-09 08:16 | 47.24412 | 26.91462 | 28459 ft | 463 kts | 280° |
| 2026-05-09 08:16 | 47.25169 | 26.86206 | 28889 ft | 461 kts | 280° |
| 2026-05-09 08:16 | 47.25829 | 26.81606 | 29250 ft | 460 kts | 280° |
| 2026-05-09 08:16 | 47.26489 | 26.76989 | 29560 ft | 460 kts | 280° |
| 2026-05-09 08:17 | 47.27147 | 26.72367 | 29888 ft | 460 kts | 280° |
| 2026-05-09 08:17 | 47.27791 | 26.67829 | 30206 ft | 459 kts | 280° |
| 2026-05-09 08:17 | 47.28444 | 26.63224 | 30482 ft | 459 kts | 279° |
| 2026-05-09 08:17 | 47.29092 | 26.58634 | 30787 ft | 458 kts | 279° |
| 2026-05-09 08:18 | 47.29736 | 26.54055 | 31172 ft | 454 kts | 279° |
| 2026-05-09 08:18 | 47.30374 | 26.49513 | 31505 ft | 452 kts | 279° |
| 2026-05-09 08:18 | 47.31011 | 26.44960 | 31730 ft | 453 kts | 279° |
| 2026-05-09 08:18 | 47.31643 | 26.40420 | 31923 ft | 454 kts | 279° |
| 2026-05-09 08:19 | 47.32277 | 26.35859 | 32183 ft | 453 kts | 279° |
| 2026-05-09 08:19 | 47.32907 | 26.31312 | 32486 ft | 451 kts | 278° |
| 2026-05-09 08:19 | 47.33533 | 26.26781 | 32749 ft | 451 kts | 278° |
| 2026-05-09 08:19 | 47.34156 | 26.22255 | 32973 ft | 451 kts | 278° |
| 2026-05-09 08:20 | 47.34778 | 26.17729 | 33201 ft | 451 kts | 278° |
| 2026-05-09 08:20 | 47.35390 | 26.13261 | 33519 ft | 448 kts | 278° |
| 2026-05-09 08:20 | 47.36011 | 26.08710 | 33797 ft | 447 kts | 278° |
| 2026-05-09 08:20 | 47.36614 | 26.04278 | 33980 ft | 447 kts | 278° |
| 2026-05-09 08:21 | 47.37224 | 25.99775 | 34107 ft | 448 kts | 278° |
| 2026-05-09 08:21 | 47.37842 | 25.95201 | 34100 ft | 451 kts | 278° |
| 2026-05-09 08:21 | 47.39050 | 25.86224 | 34100 ft | 448 kts | 278° |
| 2026-05-09 08:22 | 47.40253 | 25.77238 | 34121 ft | 446 kts | 278° |
| 2026-05-09 08:22 | 47.41445 | 25.68270 | 34111 ft | 443 kts | 277° |
| 2026-05-09 08:23 | 47.42623 | 25.59345 | 34104 ft | 442 kts | 277° |
| 2026-05-09 08:23 | 47.43786 | 25.50477 | 34099 ft | 440 kts | 277° |
| 2026-05-09 08:24 | 47.44942 | 25.41608 | 34098 ft | 440 kts | 277° |
| 2026-05-09 08:24 | 47.46088 | 25.32759 | 34091 ft | 441 kts | 277° |
| 2026-05-09 08:25 | 47.47234 | 25.23851 | 34095 ft | 442 kts | 277° |
| 2026-05-09 08:25 | 47.48379 | 25.14899 | 34086 ft | 444 kts | 277° |
| 2026-05-09 08:26 | 47.49443 | 25.06523 | 34088 ft | 446 kts | 277° |
| 2026-05-09 08:26 | 47.50519 | 24.98006 | 34072 ft | 447 kts | 277° |
| 2026-05-09 08:27 | 47.51652 | 24.88973 | 34082 ft | 447 kts | 277° |
| 2026-05-09 08:27 | 47.52743 | 24.80224 | 34075 ft | 449 kts | 277° |
| 2026-05-09 08:28 | 47.53523 | 24.73743 | 34044 ft | 449 kts | 276° |
| 2026-05-09 08:28 | 47.54636 | 24.64661 | 34071 ft | 449 kts | 277° |
| 2026-05-09 08:29 | 47.55770 | 24.55559 | 34067 ft | 449 kts | 277° |
| 2026-05-09 08:29 | 47.56885 | 24.46468 | 34061 ft | 448 kts | 276° |
| 2026-05-09 08:30 | 47.57928 | 24.37835 | 34059 ft | 447 kts | 276° |
| 2026-05-09 08:30 | 47.59014 | 24.28776 | 34055 ft | 443 kts | 276° |
| 2026-05-09 08:31 | 47.59543 | 24.24357 | 34037 ft | 429 kts | 276° |
| 2026-05-09 08:31 | 47.60058 | 24.20042 | 34067 ft | 428 kts | 276° |
| 2026-05-09 08:31 | 47.61091 | 24.11270 | 34086 ft | 433 kts | 275° |
| 2026-05-09 08:32 | 47.61530 | 24.07550 | 34040 ft | 421 kts | 275° |
| 2026-05-09 08:32 | 47.61908 | 24.04348 | 34037 ft | 409 kts | 275° |
| 2026-05-09 08:33 | 47.63343 | 23.92025 | 34051 ft | 400 kts | 275° |
| 2026-05-09 08:33 | 47.64271 | 23.84013 | 34077 ft | 397 kts | 275° |
| 2026-05-09 08:34 | 47.65200 | 23.75890 | 34096 ft | 406 kts | 275° |
| 2026-05-09 08:34 | 47.66147 | 23.67514 | 34083 ft | 416 kts | 275° |
| 2026-05-09 08:35 | 47.67110 | 23.58953 | 34085 ft | 425 kts | 275° |
| 2026-05-09 08:35 | 47.68087 | 23.50226 | 34089 ft | 433 kts | 275° |
| 2026-05-09 08:36 | 47.69077 | 23.41318 | 34079 ft | 440 kts | 275° |
| 2026-05-09 08:36 | 47.70073 | 23.32293 | 34069 ft | 444 kts | 275° |
| 2026-05-09 08:37 | 47.71057 | 23.23318 | 34075 ft | 446 kts | 274° |
| 2026-05-09 08:37 | 47.72046 | 23.14221 | 34069 ft | 446 kts | 274° |
| 2026-05-09 08:38 | 47.73020 | 23.05198 | 34073 ft | 445 kts | 274° |
| 2026-05-09 08:38 | 47.73991 | 22.96126 | 34071 ft | 444 kts | 274° |
| 2026-05-09 08:39 | 47.74950 | 22.87087 | 34105 ft | 442 kts | 274° |
| 2026-05-09 08:39 | 47.75898 | 22.78096 | 34082 ft | 439 kts | 273° |
| 2026-05-09 08:40 | 47.76834 | 22.69134 | 34068 ft | 436 kts | 273° |
| 2026-05-09 08:40 | 47.77755 | 22.60250 | 34071 ft | 434 kts | 273° |
| 2026-05-09 08:41 | 47.78666 | 22.51414 | 34066 ft | 432 kts | 274° |
| 2026-05-09 08:41 | 47.79522 | 22.47100 | 34065 ft | 443 kts | 292° |
| 2026-05-09 08:41 | 47.81243 | 22.43248 | 34075 ft | 453 kts | 306° |
| 2026-05-09 08:41 | 47.83647 | 22.40139 | 34089 ft | 463 kts | 321° |
| 2026-05-09 08:42 | 47.86392 | 22.37602 | 34064 ft | 466 kts | 324° |
| 2026-05-09 08:42 | 47.92005 | 22.32726 | 34069 ft | 467 kts | 324° |
| 2026-05-09 08:43 | 47.97544 | 22.27870 | 34067 ft | 463 kts | 324° |
| 2026-05-09 08:43 | 48.00185 | 22.25518 | 34062 ft | 450 kts | 323° |
| 2026-05-09 08:43 | 48.02866 | 22.23105 | 34084 ft | 451 kts | 323° |
| 2026-05-09 08:44 | 48.08282 | 22.18185 | 34089 ft | 460 kts | 322° |
| 2026-05-09 08:44 | 48.13798 | 22.13165 | 34093 ft | 468 kts | 323° |
| 2026-05-09 08:45 | 48.19413 | 22.08053 | 34084 ft | 475 kts | 323° |
| 2026-05-09 08:45 | 48.25084 | 22.02883 | 34075 ft | 478 kts | 323° |
| 2026-05-09 08:46 | 48.30769 | 21.97685 | 34087 ft | 479 kts | 322° |
| 2026-05-09 08:46 | 48.36393 | 21.92548 | 34075 ft | 472 kts | 324° |
| 2026-05-09 08:47 | 48.42251 | 21.87953 | 34101 ft | 472 kts | 328° |
| 2026-05-09 08:47 | 48.48122 | 21.83644 | 34083 ft | 473 kts | 328° |
| 2026-05-09 08:48 | 48.54034 | 21.79267 | 34091 ft | 473 kts | 328° |
| 2026-05-09 08:48 | 48.59884 | 21.74866 | 34085 ft | 473 kts | 327° |
| 2026-05-09 08:49 | 48.65774 | 21.70397 | 34105 ft | 473 kts | 327° |
| 2026-05-09 08:49 | 48.71653 | 21.65922 | 34097 ft | 474 kts | 327° |
| 2026-05-09 08:49 | 48.74493 | 21.63763 | 34068 ft | 460 kts | 327° |
| 2026-05-09 08:50 | 48.77290 | 21.61637 | 34102 ft | 455 kts | 327° |
| 2026-05-09 08:50 | 48.82963 | 21.57291 | 34139 ft | 463 kts | 327° |
| 2026-05-09 08:51 | 48.88802 | 21.52804 | 34116 ft | 471 kts | 327° |
| 2026-05-09 08:51 | 48.94607 | 21.48339 | 34137 ft | 477 kts | 327° |
| 2026-05-09 08:52 | 49.00557 | 21.43758 | 34121 ft | 480 kts | 327° |
| 2026-05-09 08:52 | 49.06541 | 21.39139 | 34134 ft | 481 kts | 327° |
| 2026-05-09 08:53 | 49.12518 | 21.34512 | 34126 ft | 481 kts | 327° |
| 2026-05-09 08:53 | 49.18449 | 21.29911 | 34124 ft | 474 kts | 327° |
| 2026-05-09 08:54 | 49.23169 | 21.26239 | 34149 ft | 471 kts | 327° |
| 2026-05-09 08:54 | 49.28606 | 21.21994 | 34152 ft | 468 kts | 327° |
| 2026-05-09 08:55 | 49.34256 | 21.17568 | 34152 ft | 466 kts | 327° |
| 2026-05-09 08:55 | 49.39042 | 21.13813 | 34174 ft | 465 kts | 327° |
| 2026-05-09 08:56 | 49.44799 | 21.09287 | 34157 ft | 464 kts | 327° |
| 2026-05-09 08:56 | 49.50547 | 21.04754 | 34159 ft | 465 kts | 327° |
| 2026-05-09 08:57 | 49.56326 | 21.00185 | 34165 ft | 466 kts | 327° |
| 2026-05-09 08:57 | 49.62092 | 20.95616 | 34166 ft | 467 kts | 327° |
| 2026-05-09 08:58 | 49.67874 | 20.91022 | 34174 ft | 467 kts | 327° |
| 2026-05-09 08:58 | 49.73660 | 20.86411 | 34162 ft | 467 kts | 327° |
| 2026-05-09 08:59 | 49.79389 | 20.81834 | 34177 ft | 467 kts | 327° |
| 2026-05-09 08:59 | 49.85164 | 20.77208 | 34171 ft | 466 kts | 327° |
| 2026-05-09 09:00 | 49.90907 | 20.72595 | 34166 ft | 464 kts | 327° |
| 2026-05-09 09:00 | 49.96637 | 20.67979 | 34181 ft | 462 kts | 327° |
| 2026-05-09 09:01 | 50.02337 | 20.63375 | 34171 ft | 460 kts | 327° |
| 2026-05-09 09:01 | 50.08078 | 20.59015 | 34153 ft | 464 kts | 336° |
| 2026-05-09 09:02 | 50.14370 | 20.57266 | 34158 ft | 474 kts | 356° |
| 2026-05-09 09:02 | 50.19852 | 20.57778 | 34128 ft | 477 kts | 0° |
| 2026-05-09 09:02 | 50.22799 | 20.58152 | 33884 ft | 481 kts | 0° |
| 2026-05-09 09:03 | 50.26037 | 20.58557 | 33623 ft | 480 kts | 0° |
| 2026-05-09 09:03 | 50.28803 | 20.58884 | 33387 ft | 479 kts | 0° |
| 2026-05-09 09:03 | 50.31872 | 20.59225 | 33138 ft | 480 kts | 360° |
| 2026-05-09 09:03 | 50.34337 | 20.59488 | 32948 ft | 480 kts | 360° |
| 2026-05-09 09:04 | 50.37641 | 20.59831 | 32688 ft | 481 kts | 360° |
| 2026-05-09 09:04 | 50.40899 | 20.60166 | 32433 ft | 482 kts | 360° |
| 2026-05-09 09:04 | 50.44007 | 20.60486 | 32208 ft | 483 kts | 359° |
| 2026-05-09 09:04 | 50.46787 | 20.60774 | 32006 ft | 484 kts | 359° |
| 2026-05-09 09:05 | 50.50117 | 20.61121 | 31689 ft | 487 kts | 359° |
| 2026-05-09 09:05 | 50.53484 | 20.61474 | 31273 ft | 482 kts | 359° |
| 2026-05-09 09:05 | 50.56818 | 20.61825 | 30876 ft | 477 kts | 359° |
| 2026-05-09 09:05 | 50.60113 | 20.62172 | 30474 ft | 472 kts | 359° |
| 2026-05-09 09:06 | 50.63348 | 20.62511 | 30062 ft | 470 kts | 359° |
| 2026-05-09 09:06 | 50.66131 | 20.62801 | 29598 ft | 470 kts | 359° |
| 2026-05-09 09:06 | 50.68715 | 20.63070 | 29181 ft | 469 kts | 359° |
| 2026-05-09 09:06 | 50.71920 | 20.63406 | 28634 ft | 465 kts | 359° |
| 2026-05-09 09:07 | 50.74906 | 20.63719 | 28144 ft | 462 kts | 359° |
| 2026-05-09 09:07 | 50.77531 | 20.63995 | 27699 ft | 459 kts | 359° |
| 2026-05-09 09:07 | 50.79126 | 20.64162 | 27435 ft | 457 kts | 359° |
| 2026-05-09 09:07 | 50.82113 | 20.64476 | 26924 ft | 454 kts | 359° |
| 2026-05-09 09:08 | 50.85270 | 20.64808 | 26275 ft | 454 kts | 360° |
| 2026-05-09 09:08 | 50.88422 | 20.65140 | 25655 ft | 453 kts | 360° |
| 2026-05-09 09:08 | 50.91562 | 20.65472 | 25066 ft | 451 kts | 0° |
| 2026-05-09 09:08 | 50.94600 | 20.65793 | 24500 ft | 450 kts | 0° |
| 2026-05-09 09:09 | 50.97633 | 20.66115 | 23927 ft | 448 kts | 1° |
| 2026-05-09 09:09 | 50.99799 | 20.66345 | 23484 ft | 446 kts | 1° |
| 2026-05-09 09:09 | 51.02174 | 20.66595 | 22961 ft | 444 kts | 1° |
| 2026-05-09 09:09 | 51.05129 | 20.66910 | 22368 ft | 441 kts | 1° |
| 2026-05-09 09:10 | 51.08003 | 20.67217 | 21780 ft | 437 kts | 1° |
| 2026-05-09 09:10 | 51.10866 | 20.67523 | 21222 ft | 434 kts | 1° |
| 2026-05-09 09:10 | 51.13383 | 20.67793 | 20727 ft | 431 kts | 1° |
| 2026-05-09 09:10 | 51.16147 | 20.68088 | 20211 ft | 428 kts | 1° |
| 2026-05-09 09:11 | 51.19013 | 20.68395 | 19655 ft | 424 kts | 1° |
| 2026-05-09 09:11 | 51.21737 | 20.68686 | 19139 ft | 421 kts | 1° |
| 2026-05-09 09:11 | 51.24183 | 20.68948 | 18679 ft | 418 kts | 1° |
| 2026-05-09 09:11 | 51.26830 | 20.69232 | 18143 ft | 415 kts | 1° |
| 2026-05-09 09:12 | 51.29559 | 20.69772 | 17536 ft | 416 kts | 11° |
| 2026-05-09 09:12 | 51.32025 | 20.71032 | 17013 ft | 415 kts | 17° |
| 2026-05-09 09:12 | 51.33778 | 20.72066 | 16636 ft | 412 kts | 17° |
| 2026-05-09 09:12 | 51.35152 | 20.72859 | 16341 ft | 411 kts | 16° |
| 2026-05-09 09:13 | 51.37592 | 20.74183 | 16145 ft | 399 kts | 18° |
| 2026-05-09 09:13 | 51.40119 | 20.75797 | 16157 ft | 384 kts | 20° |
| 2026-05-09 09:13 | 51.42544 | 20.77447 | 15782 ft | 379 kts | 20° |
| 2026-05-09 09:13 | 51.44959 | 20.79096 | 15193 ft | 373 kts | 20° |
| 2026-05-09 09:14 | 51.47336 | 20.80703 | 14628 ft | 366 kts | 19° |
| 2026-05-09 09:14 | 51.49640 | 20.82241 | 14086 ft | 360 kts | 19° |
| 2026-05-09 09:14 | 51.51937 | 20.83758 | 13484 ft | 354 kts | 19° |
| 2026-05-09 09:14 | 51.54200 | 20.85246 | 12879 ft | 349 kts | 19° |
| 2026-05-09 09:15 | 51.56439 | 20.86713 | 12281 ft | 344 kts | 19° |
| 2026-05-09 09:15 | 51.58643 | 20.88156 | 11702 ft | 340 kts | 19° |
| 2026-05-09 09:15 | 51.60825 | 20.89585 | 11127 ft | 336 kts | 19° |
| 2026-05-09 09:15 | 51.62979 | 20.90997 | 10559 ft | 332 kts | 19° |
| 2026-05-09 09:16 | 51.65106 | 20.92393 | 10010 ft | 329 kts | 18° |
| 2026-05-09 09:16 | 51.69294 | 20.95143 | 8803 ft | 322 kts | 19° |
| 2026-05-09 09:16 | 51.71354 | 20.96499 | 8212 ft | 318 kts | 20° |
| 2026-05-09 09:17 | 51.73397 | 20.97844 | 7574 ft | 317 kts | 20° |
| 2026-05-09 09:17 | 51.75445 | 20.99195 | 6874 ft | 317 kts | 21° |
| 2026-05-09 09:17 | 51.77475 | 21.00535 | 6173 ft | 316 kts | 20° |
| 2026-05-09 09:17 | 51.79479 | 21.01859 | 5444 ft | 314 kts | 21° |
| 2026-05-09 09:18 | 51.81517 | 21.03207 | 4603 ft | 308 kts | 21° |
| 2026-05-09 09:18 | 51.83424 | 21.04472 | 4234 ft | 285 kts | 20° |
| 2026-05-09 09:18 | 51.85195 | 21.05648 | 3831 ft | 267 kts | 20° |
| 2026-05-09 09:18 | 51.86816 | 21.06950 | 3415 ft | 258 kts | 37° |
| 2026-05-09 09:19 | 51.87913 | 21.09057 | 3221 ft | 248 kts | 56° |
| 2026-05-09 09:19 | 51.88726 | 21.11410 | 3157 ft | 232 kts | 59° |
| 2026-05-09 09:19 | 51.89475 | 21.13711 | 3171 ft | 230 kts | 60° |
| 2026-05-09 09:19 | 51.90262 | 21.15878 | 3137 ft | 214 kts | 45° |
| 2026-05-09 09:20 | 51.91458 | 21.16966 | 3159 ft | 189 kts | 9° |
| 2026-05-09 09:20 | 51.92741 | 21.17036 | 3157 ft | 184 kts | 351° |
| 2026-05-09 09:20 | 51.93936 | 21.16394 | 3182 ft | 181 kts | 332° |
| 2026-05-09 09:20 | 51.95054 | 21.15451 | 3186 ft | 182 kts | 335° |
| 2026-05-09 09:21 | 51.96188 | 21.14569 | 3196 ft | 184 kts | 334° |
| 2026-05-09 09:21 | 51.97338 | 21.13608 | 3091 ft | 188 kts | 333° |
| 2026-05-09 09:21 | 51.98479 | 21.12622 | 2858 ft | 187 kts | 333° |
| 2026-05-09 09:21 | 51.99642 | 21.11604 | 2500 ft | 188 kts | 333° |
| 2026-05-09 09:22 | 52.00742 | 21.10636 | 2495 ft | 173 kts | 333° |
| 2026-05-09 09:22 | 52.01610 | 21.09872 | 2498 ft | 170 kts | 333° |
| 2026-05-09 09:22 | 52.02300 | 21.09266 | 2504 ft | 174 kts | 333° |
| 2026-05-09 09:22 | 52.03369 | 21.08325 | 2310 ft | 182 kts | 333° |
| 2026-05-09 09:23 | 52.04483 | 21.07346 | 2019 ft | 181 kts | 333° |
| 2026-05-09 09:23 | 52.05584 | 21.06377 | 1725 ft | 178 kts | 332° |
| 2026-05-09 09:23 | 52.06641 | 21.05449 | 1521 ft | 171 kts | 333° |
| 2026-05-09 09:23 | 52.07668 | 21.04541 | 1533 ft | 171 kts | 333° |
| 2026-05-09 09:24 | 52.08695 | 21.03642 | 1450 ft | 176 kts | 333° |
| 2026-05-09 09:24 | 52.09743 | 21.02720 | 1310 ft | 175 kts | 333° |
| 2026-05-09 09:24 | 52.10777 | 21.01814 | 1125 ft | 171 kts | 332° |
| 2026-05-09 09:24 | 52.11792 | 21.00884 | 851 ft | 166 kts | 331° |
| 2026-05-09 09:25 | 52.12757 | 21.00010 | 693 ft | 154 kts | 332° |
| 2026-05-09 09:25 | 52.13670 | 20.99216 | 558 ft | 145 kts | 332° |
| 2026-05-09 09:25 | 52.14531 | 20.98466 | 430 ft | 141 kts | 334° |
| 2026-05-09 09:25 | 52.15367 | 20.97762 | 363 ft | 139 kts | 332° |
| 2026-05-09 09:26 | 52.16064 | 20.97158 | 338 ft | 65 kts | 331° |
| 2026-05-09 09:26 | 52.16346 | 20.96910 | 334 ft | 29 kts | 332° |
| 2026-05-09 09:26 | 52.16567 | 20.96719 | 337 ft | 44 kts | 332° |
| 2026-05-09 09:26 | 52.16789 | 20.96544 | 337 ft | 33 kts | 342° |
| 2026-05-09 09:27 | 52.16983 | 20.96514 | 335 ft | 20 kts | 0° |
| 2026-05-09 09:27 | 52.17083 | 20.96559 | 333 ft | 0 kts | 51° |
| 2026-05-09 09:29 | 52.17083 | 20.96560 | 334 ft | 1 kts | 52° |
| 2026-05-09 09:29 | 52.17101 | 20.96604 | 334 ft | 7 kts | 61° |
| 2026-05-09 09:30 | 52.17126 | 20.96681 | 333 ft | 9 kts | 61° |
| 2026-05-09 09:30 | 52.17155 | 20.96770 | 333 ft | 9 kts | 67° |
| 2026-05-09 09:30 | 52.17135 | 20.96859 | 335 ft | 9 kts | 146° |
| 2026-05-09 09:30 | 52.17079 | 20.96910 | 333 ft | 9 kts | 151° |
| 2026-05-09 09:31 | 52.17019 | 20.96963 | 332 ft | 10 kts | 151° |
| 2026-05-09 09:31 | 52.16981 | 20.96997 | 331 ft | 7 kts | 151° |
| 2026-05-09 09:31 | 52.16939 | 20.97038 | 335 ft | 7 kts | 134° |
| 2026-05-09 09:32 | 52.16955 | 20.97185 | 334 ft | 0 kts | 69° |
| 2026-05-09 09:32 | 52.16956 | 20.97189 | 334 ft | 1 kts | 69° |
| 2026-05-09 09:32 | 52.16957 | 20.97192 | 334 ft | 0 kts | 68° |
| 2026-05-09 09:32 | 52.16958 | 20.97197 | 334 ft | 0 kts | 69° |